Time;durP1;ratioP1;P1;durP2;ratioP2;P2;SDS_P1;SDS_P2;PMS_P1;PMS_P2;Temp;Humidity;BMP_temperature;BMP_pressure;BME280_temperature;BME280_humidity;BME280_pressure;Samples;Min_cycle;Max_cycle;Signal;HPM_P1;HPM_P2
2024/01/15 00:02:02;;;;;;;;;;;19.20;43.70;;;;;;5093408;28;19983;-55
2024/01/15 00:04:29;;;;;;;;;;;19.20;43.80;;;;;;5094227;28;19931;-53
2024/01/15 00:06:57;;;;;;;;;;;19.20;43.70;;;;;;5076114;28;19924;-54
2024/01/15 00:09:27;;;;;;;;;;;19.20;43.70;;;;;;5093827;28;19920;-55
2024/01/15 00:11:54;;;;;;;;;;;19.20;43.80;;;;;;5075307;28;19920;-54
2024/01/15 00:14:22;;;;;;;;;;;19.20;43.80;;;;;;5094235;28;19973;-52
2024/01/15 00:16:51;;;;;;;;;;;19.20;43.70;;;;;;5058355;28;20294;-55
2024/01/15 00:19:18;;;;;;;;;;;19.20;43.70;;;;;;5066709;28;19927;-54
2024/01/15 00:21:45;;;;;;;;;;;19.20;43.70;;;;;;5093619;28;19927;-55
2024/01/15 00:24:14;;;;;;;;;;;19.20;43.70;;;;;;5093226;28;19924;-53
2024/01/15 00:26:44;;;;;;;;;;;19.10;43.70;;;;;;5075472;28;19920;-53
2024/01/15 00:29:11;;;;;;;;;;;19.20;43.80;;;;;;5092971;28;20322;-52
2024/01/15 00:31:40;;;;;;;;;;;19.20;43.80;;;;;;5080248;28;19969;-55
2024/01/15 00:34:06;;;;;;;;;;;19.20;43.70;;;;;;5092473;28;19920;-55
2024/01/15 00:36:34;;;;;;;;;;;19.20;43.70;;;;;;5093064;28;19954;-53
2024/01/15 00:39:03;;;;;;;;;;;19.20;43.70;;;;;;5081448;28;19927;-54
2024/01/15 00:41:33;;;;;;;;;;;19.20;43.70;;;;;;5079972;28;20304;-55
2024/01/15 00:44:02;;;;;;;;;;;19.10;43.60;;;;;;5078689;28;19927;-56
2024/01/15 00:46:30;;;;;;;;;;;19.20;43.70;;;;;;5092233;28;19920;-63
2024/01/15 00:48:58;;;;;;;;;;;19.10;43.60;;;;;;5059184;28;19920;-55
2024/01/15 00:51:25;;;;;;;;;;;19.10;43.60;;;;;;5075121;28;19926;-55
2024/01/15 00:53:51;;;;;;;;;;;19.10;43.60;;;;;;5080200;28;19927;-55
2024/01/15 00:56:18;;;;;;;;;;;19.10;43.60;;;;;;5078381;28;19920;-55
2024/01/15 00:58:45;;;;;;;;;;;19.10;43.60;;;;;;5078092;28;19920;-53
2024/01/15 01:01:13;;;;;;;;;;;19.10;43.60;;;;;;5073848;28;19927;-56
2024/01/15 01:03:41;;;;;;;;;;;19.10;43.60;;;;;;5076916;28;19920;-52
2024/01/15 01:06:08;;;;;;;;;;;19.10;43.60;;;;;;5074754;28;19931;-52
2024/01/15 01:08:35;;;;;;;;;;;19.10;43.60;;;;;;5085639;28;20007;-54
2024/01/15 01:11:03;;;;;;;;;;;19.10;43.50;;;;;;5090700;28;19928;-51
2024/01/15 01:13:30;;;;;;;;;;;19.10;43.50;;;;;;5075424;28;19993;-51
2024/01/15 01:15:56;;;;;;;;;;;19.10;43.50;;;;;;5074432;28;19920;-54
2024/01/15 01:18:24;;;;;;;;;;;19.10;43.50;;;;;;5093206;28;19927;-52
2024/01/15 01:20:52;;;;;;;;;;;19.10;43.50;;;;;;5086155;28;20280;-51
2024/01/15 01:23:19;;;;;;;;;;;19.10;43.50;;;;;;5074621;28;19927;-55
2024/01/15 01:25:46;;;;;;;;;;;19.10;43.50;;;;;;5074429;28;19930;-57
2024/01/15 01:28:13;;;;;;;;;;;19.10;43.50;;;;;;5093394;28;19942;-53
2024/01/15 01:30:40;;;;;;;;;;;19.10;43.50;;;;;;5092320;28;19927;-52
2024/01/15 01:33:06;;;;;;;;;;;19.10;43.50;;;;;;5074780;28;19920;-53
2024/01/15 01:35:35;;;;;;;;;;;19.10;43.50;;;;;;5074214;28;19920;-54
2024/01/15 01:38:01;;;;;;;;;;;19.10;43.50;;;;;;5092235;28;19920;-51
2024/01/15 01:40:28;;;;;;;;;;;19.10;43.50;;;;;;5074943;28;19923;-53
2024/01/15 01:42:55;;;;;;;;;;;19.10;43.50;;;;;;5073778;28;19966;-54
2024/01/15 01:45:22;;;;;;;;;;;19.10;43.50;;;;;;5095345;28;19924;-52
2024/01/15 01:47:51;;;;;;;;;;;19.10;43.50;;;;;;5096514;28;19920;-54
2024/01/15 01:50:18;;;;;;;;;;;19.10;43.50;;;;;;5079343;28;19920;-52
2024/01/15 01:52:46;;;;;;;;;;;19.10;43.50;;;;;;5078952;28;19920;-55
2024/01/15 01:55:13;;;;;;;;;;;19.10;43.50;;;;;;5078775;28;19920;-55
2024/01/15 01:57:40;;;;;;;;;;;19.10;43.50;;;;;;5095593;28;19927;-51
2024/01/15 02:00:08;;;;;;;;;;;19.10;43.50;;;;;;5091339;28;20361;-52
2024/01/15 02:02:34;;;;;;;;;;;19.10;43.50;;;;;;5077790;28;19927;-54
2024/01/15 02:05:03;;;;;;;;;;;19.10;43.50;;;;;;5096134;28;19923;-55
2024/01/15 02:07:30;;;;;;;;;;;19.10;43.50;;;;;;5079047;28;19927;-55
2024/01/15 02:09:58;;;;;;;;;;;19.10;43.50;;;;;;5083780;28;19962;-52
2024/01/15 02:12:25;;;;;;;;;;;19.10;43.40;;;;;;5096993;28;19919;-52
2024/01/15 02:14:52;;;;;;;;;;;19.00;43.40;;;;;;5077477;28;20246;-51
2024/01/15 02:17:19;;;;;;;;;;;19.10;43.50;;;;;;5086135;28;19920;-51
2024/01/15 02:19:45;;;;;;;;;;;19.10;43.50;;;;;;5089988;28;19920;-51
2024/01/15 02:22:13;;;;;;;;;;;19.00;43.30;;;;;;5092466;28;19921;-52
2024/01/15 02:24:42;;;;;;;;;;;19.10;43.40;;;;;;5095862;28;19920;-55
2024/01/15 02:27:09;;;;;;;;;;;19.10;43.40;;;;;;5071282;28;19927;-50
2024/01/15 02:29:36;;;;;;;;;;;19.10;43.40;;;;;;5089171;28;19920;-57
2024/01/15 02:32:05;;;;;;;;;;;19.00;43.30;;;;;;5095885;28;19920;-55
2024/01/15 02:34:32;;;;;;;;;;;19.10;43.50;;;;;;5068093;28;19924;-53
2024/01/15 02:36:59;;;;;;;;;;;19.00;43.30;;;;;;5100119;28;19920;-50
2024/01/15 02:39:26;;;;;;;;;;;19.00;43.40;;;;;;5062367;28;19927;-52
2024/01/15 02:41:56;;;;;;;;;;;19.00;43.30;;;;;;5094246;28;20292;-54
2024/01/15 02:44:22;;;;;;;;;;;19.10;44.00;;;;;;5076608;28;19920;-53
2024/01/15 02:46:49;;;;;;;;;;;19.00;43.40;;;;;;5076197;28;19928;-53
2024/01/15 02:49:16;;;;;;;;;;;19.00;43.30;;;;;;5076545;28;19920;-54
2024/01/15 02:51:44;;;;;;;;;;;19.00;43.30;;;;;;5094727;28;19926;-53
2024/01/15 02:54:14;;;;;;;;;;;19.00;43.40;;;;;;5092990;28;19931;-52
2024/01/15 02:56:41;;;;;;;;;;;19.00;43.30;;;;;;5076555;28;20399;-54
2024/01/15 02:59:09;;;;;;;;;;;19.00;43.30;;;;;;5058688;28;19924;-53
2024/01/15 03:01:39;;;;;;;;;;;19.00;43.30;;;;;;5081073;28;19924;-55
2024/01/15 03:04:05;;;;;;;;;;;19.00;43.30;;;;;;5078417;28;19920;-55
2024/01/15 03:06:32;;;;;;;;;;;19.00;43.20;;;;;;5094435;28;19927;-56
2024/01/15 03:08:59;;;;;;;;;;;19.00;43.20;;;;;;5085015;28;19982;-53
2024/01/15 03:11:26;;;;;;;;;;;19.00;43.20;;;;;;5091181;28;19965;-55
2024/01/15 03:13:54;;;;;;;;;;;19.00;43.30;;;;;;5091543;28;19920;-53
2024/01/15 03:16:22;;;;;;;;;;;19.00;43.20;;;;;;5067157;28;19920;-54
2024/01/15 03:18:49;;;;;;;;;;;19.00;43.20;;;;;;5080207;28;19973;-56
2024/01/15 03:21:15;;;;;;;;;;;19.00;43.20;;;;;;5075564;28;19920;-54
2024/01/15 03:23:44;;;;;;;;;;;19.00;43.20;;;;;;5072767;28;19924;-54
2024/01/15 03:26:10;;;;;;;;;;;19.00;43.20;;;;;;5048623;28;19927;-54
2024/01/15 03:28:37;;;;;;;;;;;19.00;43.20;;;;;;5075070;28;19927;-55
2024/01/15 03:31:04;;;;;;;;;;;19.00;43.80;;;;;;5074159;28;20288;-54
2024/01/15 03:33:35;;;;;;;;;;;19.00;43.20;;;;;;5077945;28;19924;-54
2024/01/15 03:36:02;;;;;;;;;;;19.00;43.20;;;;;;5083648;28;19920;-55
2024/01/15 03:38:29;;;;;;;;;;;19.00;43.20;;;;;;4999883;28;1822681;-53
2024/01/15 03:40:56;;;;;;;;;;;19.00;43.20;;;;;;5094199;28;19973;-56
2024/01/15 03:43:22;;;;;;;;;;;19.00;43.20;;;;;;5077000;28;19924;-55
2024/01/15 03:45:49;;;;;;;;;;;19.00;43.20;;;;;;5084006;28;19920;-57
2024/01/15 03:48:16;;;;;;;;;;;19.00;43.20;;;;;;5088189;28;19920;-55
2024/01/15 03:50:44;;;;;;;;;;;19.00;43.30;;;;;;5079630;28;20377;-51
2024/01/15 03:53:11;;;;;;;;;;;19.00;43.20;;;;;;5083070;28;19935;-53
2024/01/15 03:55:38;;;;;;;;;;;19.00;43.30;;;;;;5074708;28;19993;-56
2024/01/15 03:58:04;;;;;;;;;;;19.00;43.30;;;;;;5083406;28;19924;-53
2024/01/15 04:00:31;;;;;;;;;;;19.00;43.20;;;;;;5092614;28;19931;-52
2024/01/15 04:02:58;;;;;;;;;;;19.00;43.20;;;;;;5082594;28;19932;-56
2024/01/15 04:05:25;;;;;;;;;;;19.00;43.20;;;;;;5083192;28;19920;-55
2024/01/15 04:07:53;;;;;;;;;;;19.00;43.20;;;;;;5083581;28;20407;-57
2024/01/15 04:10:20;;;;;;;;;;;19.00;43.20;;;;;;5066366;28;19924;-55
2024/01/15 04:12:47;;;;;;;;;;;19.00;43.20;;;;;;5096275;28;19946;-56
2024/01/15 04:15:13;;;;;;;;;;;19.00;43.20;;;;;;5082638;28;19994;-55
2024/01/15 04:17:40;;;;;;;;;;;19.00;43.20;;;;;;5092582;28;19996;-55
2024/01/15 04:20:08;;;;;;;;;;;19.00;43.30;;;;;;5074254;28;19927;-53
2024/01/15 04:22:34;;;;;;;;;;;19.00;43.30;;;;;;5092329;28;19931;-54
2024/01/15 04:25:03;;;;;;;;;;;19.00;43.20;;;;;;5082599;28;19920;-53
2024/01/15 04:27:30;;;;;;;;;;;19.00;43.20;;;;;;5079850;28;19920;-56
2024/01/15 04:29:56;;;;;;;;;;;19.00;43.30;;;;;;5092224;28;19928;-54
2024/01/15 04:32:23;;;;;;;;;;;19.00;43.20;;;;;;5075918;28;19927;-55
2024/01/15 04:34:50;;;;;;;;;;;19.00;43.20;;;;;;5091913;28;19931;-55
2024/01/15 04:37:16;;;;;;;;;;;19.00;43.20;;;;;;5082281;28;19920;-50
2024/01/15 04:39:43;;;;;;;;;;;19.00;43.20;;;;;;5082372;28;19985;-55
2024/01/15 04:42:11;;;;;;;;;;;19.00;43.20;;;;;;5088688;28;19943;-55
2024/01/15 04:44:38;;;;;;;;;;;19.00;43.30;;;;;;5082370;28;19928;-54
2024/01/15 04:47:05;;;;;;;;;;;19.00;43.20;;;;;;5083796;28;19920;-56
2024/01/15 04:49:32;;;;;;;;;;;19.00;43.20;;;;;;5073659;28;19920;-54
2024/01/15 04:51:58;;;;;;;;;;;19.00;43.20;;;;;;5073470;28;19926;-53
2024/01/15 04:54:25;;;;;;;;;;;19.00;43.20;;;;;;5092153;28;19920;-54
2024/01/15 04:56:52;;;;;;;;;;;18.90;43.10;;;;;;5073389;28;20139;-54
2024/01/15 04:59:20;;;;;;;;;;;19.00;43.20;;;;;;5086650;28;19921;-54
2024/01/15 05:01:47;;;;;;;;;;;19.00;43.20;;;;;;5070273;28;19989;-56
2024/01/15 05:04:13;;;;;;;;;;;19.00;43.20;;;;;;5081865;28;20427;-52
2024/01/15 05:06:40;;;;;;;;;;;19.00;43.20;;;;;;5082043;28;20006;-55
2024/01/15 05:09:07;;;;;;;;;;;19.00;43.20;;;;;;5088462;28;19947;-52
2024/01/15 05:11:34;;;;;;;;;;;19.00;43.20;;;;;;5087869;28;19920;-55
2024/01/15 05:14:01;;;;;;;;;;;18.90;43.00;;;;;;5091563;28;19920;-54
2024/01/15 05:16:30;;;;;;;;;;;19.00;43.10;;;;;;5075784;28;19930;-55
2024/01/15 05:18:57;;;;;;;;;;;19.00;43.10;;;;;;5074899;28;19974;-54
2024/01/15 05:21:24;;;;;;;;;;;19.00;43.10;;;;;;5091395;28;19977;-53
2024/01/15 05:23:50;;;;;;;;;;;19.00;43.10;;;;;;5090128;28;19928;-54
2024/01/15 05:26:17;;;;;;;;;;;19.00;43.10;;;;;;5091161;28;19920;-54
2024/01/15 05:28:44;;;;;;;;;;;19.00;43.10;;;;;;5081504;28;20008;-56
2024/01/15 05:31:11;;;;;;;;;;;18.90;43.00;;;;;;5091385;28;19942;-50
2024/01/15 05:33:40;;;;;;;;;;;19.00;43.10;;;;;;5091448;28;19920;-55
2024/01/15 05:36:07;;;;;;;;;;;19.00;43.10;;;;;;5073552;28;19924;-53
2024/01/15 05:38:33;;;;;;;;;;;19.00;43.10;;;;;;5072841;28;19924;-57
2024/01/15 05:41:00;;;;;;;;;;;19.00;43.10;;;;;;5080217;28;19924;-54
2024/01/15 05:43:27;;;;;;;;;;;19.00;43.10;;;;;;5064709;28;19924;-55
2024/01/15 05:45:54;;;;;;;;;;;19.00;43.10;;;;;;5082734;28;19966;-52
2024/01/15 05:48:20;;;;;;;;;;;18.90;43.00;;;;;;5073001;28;19920;-54
2024/01/15 05:50:49;;;;;;;;;;;19.00;43.10;;;;;;5081718;28;19928;-57
2024/01/15 05:53:15;;;;;;;;;;;18.90;43.00;;;;;;5090879;28;19931;-55
2024/01/15 05:55:42;;;;;;;;;;;19.00;43.10;;;;;;5077470;28;19990;-56
2024/01/15 05:58:09;;;;;;;;;;;19.00;43.10;;;;;;5073283;28;19925;-56
2024/01/15 06:00:38;;;;;;;;;;;18.90;43.00;;;;;;5071446;28;19925;-53
2024/01/15 06:03:05;;;;;;;;;;;19.00;43.10;;;;;;5082209;28;20015;-54
2024/01/15 06:05:31;;;;;;;;;;;19.00;43.10;;;;;;5081342;28;19924;-53
2024/01/15 06:08:00;;;;;;;;;;;19.00;43.10;;;;;;5090556;28;19931;-55
2024/01/15 06:10:26;;;;;;;;;;;19.00;43.10;;;;;;5078801;28;19931;-56
2024/01/15 06:12:53;;;;;;;;;;;19.00;43.10;;;;;;5071700;28;19935;-54
2024/01/15 06:15:20;;;;;;;;;;;19.00;43.10;;;;;;5067320;28;19920;-54
2024/01/15 06:17:47;;;;;;;;;;;19.00;43.10;;;;;;5075724;28;19924;-53
2024/01/15 06:20:14;;;;;;;;;;;19.00;43.10;;;;;;5073111;28;19924;-52
2024/01/15 06:22:41;;;;;;;;;;;19.00;43.00;;;;;;5074283;28;19931;-54
2024/01/15 06:25:09;;;;;;;;;;;18.90;42.90;;;;;;5090610;28;19947;-57
2024/01/15 06:27:36;;;;;;;;;;;19.00;43.10;;;;;;5081032;28;19919;-55
2024/01/15 06:30:03;;;;;;;;;;;19.00;43.00;;;;;;5073540;28;20086;-53
2024/01/15 06:32:30;;;;;;;;;;;19.00;43.00;;;;;;5076149;28;19920;-54
2024/01/15 06:34:57;;;;;;;;;;;19.00;43.00;;;;;;5084988;28;19920;-52
2024/01/15 06:37:23;;;;;;;;;;;19.00;43.00;;;;;;5084559;28;20352;-53
2024/01/15 06:39:50;;;;;;;;;;;19.00;43.00;;;;;;5085148;28;19927;-54
2024/01/15 06:42:18;;;;;;;;;;;19.00;43.00;;;;;;5083606;28;19924;-51
2024/01/15 06:44:45;;;;;;;;;;;19.00;43.00;;;;;;5084771;28;20119;-54
2024/01/15 06:47:12;;;;;;;;;;;19.00;43.00;;;;;;5076342;28;19927;-55
2024/01/15 06:49:39;;;;;;;;;;;19.00;43.00;;;;;;5078555;28;19924;-49
2024/01/15 06:52:06;;;;;;;;;;;18.90;42.90;;;;;;5094713;28;19924;-55
2024/01/15 06:54:33;;;;;;;;;;;19.00;43.00;;;;;;5094279;28;20020;-55
2024/01/15 06:57:00;;;;;;;;;;;19.00;42.90;;;;;;5078112;28;19920;-52
2024/01/15 06:59:30;;;;;;;;;;;19.00;42.90;;;;;;5063471;28;19983;-54
2024/01/15 07:01:59;;;;;;;;;;;18.90;42.90;;;;;;5095255;28;19920;-52
2024/01/15 07:04:26;;;;;;;;;;;19.00;42.90;;;;;;5082315;28;19948;-54
2024/01/15 07:06:53;;;;;;;;;;;19.00;42.90;;;;;;5095550;28;20023;-51
2024/01/15 07:09:20;;;;;;;;;;;19.00;42.90;;;;;;5096337;28;19927;-54
2024/01/15 07:11:47;;;;;;;;;;;18.90;42.80;;;;;;5094444;28;19921;-51
2024/01/15 07:14:14;;;;;;;;;;;18.90;42.80;;;;;;5079856;28;19924;-53
2024/01/15 07:16:42;;;;;;;;;;;18.90;42.80;;;;;;5097122;28;19920;-52
2024/01/15 07:19:09;;;;;;;;;;;18.90;42.80;;;;;;5097089;28;19924;-55
2024/01/15 07:21:36;;;;;;;;;;;18.90;42.80;;;;;;5096153;28;19919;-55
2024/01/15 07:24:02;;;;;;;;;;;18.90;42.80;;;;;;5096094;28;19920;-53
2024/01/15 07:26:30;;;;;;;;;;;18.90;42.80;;;;;;5083592;28;19942;-52
2024/01/15 07:28:58;;;;;;;;;;;18.90;42.80;;;;;;5084214;28;19974;-49
2024/01/15 07:31:24;;;;;;;;;;;18.90;42.80;;;;;;5077248;28;20725;-52
2024/01/15 07:33:53;;;;;;;;;;;18.90;42.80;;;;;;5077975;28;19920;-53
2024/01/15 07:36:20;;;;;;;;;;;18.90;42.80;;;;;;5076203;28;20014;-53
2024/01/15 07:38:47;;;;;;;;;;;18.90;42.80;;;;;;5097036;28;19920;-52
2024/01/15 07:41:14;;;;;;;;;;;18.90;42.80;;;;;;5093888;28;19927;-52
2024/01/15 07:43:41;;;;;;;;;;;18.90;42.80;;;;;;5077179;28;20076;-54
2024/01/15 07:46:10;;;;;;;;;;;18.90;42.80;;;;;;5086165;28;19927;-54
2024/01/15 07:48:37;;;;;;;;;;;18.90;42.80;;;;;;5074208;28;19924;-56
2024/01/15 07:51:06;;;;;;;;;;;18.90;42.90;;;;;;5081379;28;19927;-54
2024/01/15 07:53:33;;;;;;;;;;;18.90;42.90;;;;;;5092709;28;19920;-55
2024/01/15 07:56:00;;;;;;;;;;;18.90;42.90;;;;;;5092271;28;19924;-56
2024/01/15 07:58:27;;;;;;;;;;;18.90;42.80;;;;;;5081401;28;19931;-57
2024/01/15 08:00:56;;;;;;;;;;;19.00;42.90;;;;;;5079641;28;19928;-57
2024/01/15 08:03:23;;;;;;;;;;;19.00;42.90;;;;;;5073358;28;19928;-57
2024/01/15 08:05:52;;;;;;;;;;;19.00;42.90;;;;;;5075801;28;19924;-57
2024/01/15 08:08:23;;;;;;;;;;;19.00;43.00;;;;;;5084151;28;19924;-57
2024/01/15 08:10:49;;;;;;;;;;;19.00;42.90;;;;;;5074995;28;19930;-55
2024/01/15 08:13:17;;;;;;;;;;;19.00;43.00;;;;;;5084763;28;19925;-56
2024/01/15 08:15:44;;;;;;;;;;;19.00;43.00;;;;;;5073265;28;19951;-56
2024/01/15 08:18:11;;;;;;;;;;;19.00;43.00;;;;;;5070939;28;19950;-58
2024/01/15 08:20:38;;;;;;;;;;;19.00;43.00;;;;;;5083733;28;19925;-57
2024/01/15 08:23:05;;;;;;;;;;;19.00;43.00;;;;;;5082748;28;20031;-58
2024/01/15 08:28:43;;;;;;;;;;;19.00;43.10;;;;;;5338142;22;20586;-59
2024/01/15 08:31:11;;;;;;;;;;;19.00;43.10;;;;;;5063280;28;19928;-59
2024/01/15 08:33:39;;;;;;;;;;;19.10;43.20;;;;;;5074670;28;19920;-58
2024/01/15 08:36:06;;;;;;;;;;;19.00;43.10;;;;;;5062920;28;19992;-58
2024/01/15 08:38:34;;;;;;;;;;;19.10;43.20;;;;;;5051948;28;19955;-58
2024/01/15 08:41:04;;;;;;;;;;;19.10;43.20;;;;;;5037112;28;19952;-58
2024/01/15 08:43:31;;;;;;;;;;;19.10;43.20;;;;;;5050960;28;20082;-57
2024/01/15 08:46:00;;;;;;;;;;;19.10;43.20;;;;;;5068403;28;19932;-56
2024/01/15 08:48:27;;;;;;;;;;;19.10;43.20;;;;;;5034303;28;19927;-58
2024/01/15 08:50:55;;;;;;;;;;;19.10;43.20;;;;;;5048873;28;19920;-58
2024/01/15 08:53:22;;;;;;;;;;;19.10;43.20;;;;;;5050324;28;19921;-58
2024/01/15 08:55:49;;;;;;;;;;;19.10;43.20;;;;;;5047027;28;20023;-58
2024/01/15 08:58:16;;;;;;;;;;;19.10;43.20;;;;;;5066431;28;19968;-58
2024/01/15 09:00:46;;;;;;;;;;;19.20;43.30;;;;;;5070695;28;20021;-58
2024/01/15 09:03:15;;;;;;;;;;;19.20;43.30;;;;;;5052165;28;20016;-59
2024/01/15 09:05:42;;;;;;;;;;;19.20;43.40;;;;;;5067124;28;19936;-58
2024/01/15 09:08:09;;;;;;;;;;;19.10;43.30;;;;;;5060075;28;19931;-58
2024/01/15 09:10:36;;;;;;;;;;;19.20;43.40;;;;;;5033139;28;19931;-59
2024/01/15 09:13:04;;;;;;;;;;;19.20;43.40;;;;;;5047006;28;19921;-58
2024/01/15 09:15:31;;;;;;;;;;;19.20;43.40;;;;;;5052695;28;19928;-58
2024/01/15 09:17:58;;;;;;;;;;;19.20;43.40;;;;;;5069931;28;19955;-57
2024/01/15 09:20:27;;;;;;;;;;;19.20;43.40;;;;;;5053478;28;19931;-59
2024/01/15 09:22:54;;;;;;;;;;;19.20;43.40;;;;;;5049102;28;19927;-58
2024/01/15 09:25:21;;;;;;;;;;;19.20;43.40;;;;;;5039569;28;19928;-58
2024/01/15 09:27:48;;;;;;;;;;;19.20;43.40;;;;;;5048314;28;19946;-59
2024/01/15 09:30:15;;;;;;;;;;;19.20;43.40;;;;;;5050667;28;19970;-59
2024/01/15 09:32:42;;;;;;;;;;;19.20;44.00;;;;;;5048652;28;19921;-59
2024/01/15 09:35:10;;;;;;;;;;;19.30;43.50;;;;;;5052240;28;20014;-59
2024/01/15 09:37:38;;;;;;;;;;;19.30;43.50;;;;;;5068644;28;20012;-58
2024/01/15 09:40:06;;;;;;;;;;;19.30;43.50;;;;;;5069209;28;19920;-59
2024/01/15 09:42:33;;;;;;;;;;;19.30;43.50;;;;;;5068538;28;19974;-58
2024/01/15 09:45:00;;;;;;;;;;;19.30;43.50;;;;;;5048902;28;19920;-57
2024/01/15 09:47:27;;;;;;;;;;;19.30;43.50;;;;;;5048758;28;19931;-59
2024/01/15 09:49:53;;;;;;;;;;;19.30;43.50;;;;;;5055882;28;19920;-58
2024/01/15 09:52:20;;;;;;;;;;;19.30;43.50;;;;;;5066239;28;19921;-58
2024/01/15 09:54:49;;;;;;;;;;;19.30;43.50;;;;;;5051202;28;19920;-59
2024/01/15 09:57:16;;;;;;;;;;;19.30;43.50;;;;;;5050347;28;19939;-55
2024/01/15 09:59:43;;;;;;;;;;;19.30;43.50;;;;;;5063497;28;19931;-57
2024/01/15 10:02:10;;;;;;;;;;;19.30;43.60;;;;;;5050277;28;20008;-58
2024/01/15 10:04:37;;;;;;;;;;;19.30;43.50;;;;;;5053015;28;19931;-57
2024/01/15 10:07:04;;;;;;;;;;;19.30;43.60;;;;;;5071894;28;19924;-58
2024/01/15 10:09:31;;;;;;;;;;;19.30;43.60;;;;;;5054541;28;19925;-55
2024/01/15 10:11:59;;;;;;;;;;;19.30;43.50;;;;;;5056764;28;20050;-59
2024/01/15 10:14:26;;;;;;;;;;;19.30;43.60;;;;;;5051442;28;19960;-58
2024/01/15 10:16:53;;;;;;;;;;;19.30;43.50;;;;;;5071511;28;19927;-58
2024/01/15 10:19:20;;;;;;;;;;;19.40;43.70;;;;;;5054461;28;19927;-58
2024/01/15 10:21:47;;;;;;;;;;;19.30;43.60;;;;;;5055295;28;19990;-59
2024/01/15 10:24:13;;;;;;;;;;;19.30;43.60;;;;;;5083689;28;19995;-58
2024/01/15 10:26:40;;;;;;;;;;;19.40;43.70;;;;;;5053023;28;19920;-57
2024/01/15 10:29:08;;;;;;;;;;;19.40;43.70;;;;;;5052445;28;19933;-56
2024/01/15 10:31:35;;;;;;;;;;;19.40;43.70;;;;;;5070986;28;20011;-59
2024/01/15 10:34:10;;;;;;;;;;;19.30;43.50;;;;;;5071321;28;19927;-59
2024/01/15 10:36:37;;;;;;;;;;;19.40;43.70;;;;;;5054139;28;19927;-58
2024/01/15 10:39:04;;;;;;;;;;;19.30;43.60;;;;;;5056410;28;19920;-58
2024/01/15 10:41:30;;;;;;;;;;;19.40;43.70;;;;;;5071491;28;19921;-56
2024/01/15 10:43:57;;;;;;;;;;;19.30;43.60;;;;;;5054447;28;19932;-57
2024/01/15 10:46:26;;;;;;;;;;;19.30;43.60;;;;;;5056663;28;19925;-58
2024/01/15 10:48:53;;;;;;;;;;;19.40;43.70;;;;;;5071606;28;19920;-57
2024/01/15 10:51:20;;;;;;;;;;;19.40;43.70;;;;;;5054955;28;20422;-56
2024/01/15 10:53:47;;;;;;;;;;;19.30;43.60;;;;;;5054625;28;19921;-58
2024/01/15 10:56:14;;;;;;;;;;;19.40;43.70;;;;;;5051641;28;19920;-58
2024/01/15 10:58:40;;;;;;;;;;;19.40;43.80;;;;;;5047385;28;19920;-57
2024/01/15 11:01:07;;;;;;;;;;;19.40;43.80;;;;;;5053407;28;20290;-58
2024/01/15 11:03:36;;;;;;;;;;;19.40;43.80;;;;;;5045990;28;19920;-58
2024/01/15 11:06:03;;;;;;;;;;;19.30;43.70;;;;;;5063344;28;20019;-59
2024/01/15 11:08:30;;;;;;;;;;;19.40;43.80;;;;;;5052646;28;19921;-58
2024/01/15 11:10:57;;;;;;;;;;;19.40;43.80;;;;;;5055466;28;19924;-56
2024/01/15 11:13:40;;;;;;;;;;;19.40;43.80;;;;;;5071288;28;19924;-58
2024/01/15 11:16:07;;;;;;;;;;;19.40;43.80;;;;;;5068339;28;19954;-58
2024/01/15 11:18:37;;;;;;;;;;;19.40;43.80;;;;;;5048141;28;19927;-58
2024/01/15 11:21:26;;;;;;;;;;;19.40;44.40;;;;;;5053852;28;19928;-57
2024/01/15 11:23:53;;;;;;;;;;;19.40;43.80;;;;;;5053375;28;19920;-58
2024/01/15 11:26:29;;;;;;;;;;;19.40;43.80;;;;;;5072440;28;19938;-57
2024/01/15 11:28:56;;;;;;;;;;;19.40;43.80;;;;;;5066966;28;19936;-57
2024/01/15 11:31:27;;;;;;;;;;;19.40;43.80;;;;;;5060176;28;19920;-58
2024/01/15 11:33:55;;;;;;;;;;;19.40;43.80;;;;;;5050004;28;19924;-58
2024/01/15 11:36:22;;;;;;;;;;;19.40;43.80;;;;;;5067912;28;19993;-58
2024/01/15 11:38:50;;;;;;;;;;;19.50;43.90;;;;;;5066275;28;19924;-59
2024/01/15 11:41:17;;;;;;;;;;;19.50;43.90;;;;;;5055426;28;19924;-59
2024/01/15 11:43:44;;;;;;;;;;;19.50;43.90;;;;;;5063810;28;19925;-58
2024/01/15 11:46:12;;;;;;;;;;;19.50;44.00;;;;;;5050171;28;19921;-58
2024/01/15 11:48:46;;;;;;;;;;;19.50;43.90;;;;;;5073634;28;19927;-58
2024/01/15 11:51:15;;;;;;;;;;;19.60;44.10;;;;;;5073177;28;19927;-58
2024/01/15 11:53:45;;;;;;;;;;;19.60;44.10;;;;;;5055570;28;19931;-58
2024/01/15 11:56:14;;;;;;;;;;;19.60;44.10;;;;;;5074275;28;19920;-58
2024/01/15 11:58:42;;;;;;;;;;;19.60;44.10;;;;;;5049733;28;20047;-58
2024/01/15 12:01:09;;;;;;;;;;;19.60;44.10;;;;;;5055238;28;19928;-58
2024/01/15 12:03:36;;;;;;;;;;;19.60;44.10;;;;;;5061515;28;19933;-58
2024/01/15 12:06:04;;;;;;;;;;;19.60;44.10;;;;;;5053833;28;19920;-58
2024/01/15 12:08:50;;;;;;;;;;;19.60;44.10;;;;;;5070104;28;19932;-58
2024/01/15 12:11:18;;;;;;;;;;;19.60;44.10;;;;;;5055264;28;19939;-58
2024/01/15 12:13:45;;;;;;;;;;;19.60;44.20;;;;;;5052370;28;19950;-58
2024/01/15 12:16:27;;;;;;;;;;;19.70;44.80;;;;;;5073285;28;19980;-59
2024/01/15 12:18:55;;;;;;;;;;;19.70;44.20;;;;;;5051496;28;20010;-56
2024/01/15 12:21:40;;;;;;;;;;;19.70;44.60;;;;;;5051999;28;19960;-57
2024/01/15 12:24:10;;;;;;;;;;;19.70;44.30;;;;;;5068514;28;19975;-57
2024/01/15 12:26:58;;;;;;;;;;;19.70;44.30;;;;;;5052557;28;19951;-57
2024/01/15 12:29:27;;;;;;;;;;;19.80;44.40;;;;;;5057352;28;20209;-58
2024/01/15 12:31:55;;;;;;;;;;;19.70;44.40;;;;;;5077248;28;20010;-58
2024/01/15 12:34:23;;;;;;;;;;;19.80;44.50;;;;;;5074819;28;19920;-58
2024/01/15 12:36:51;;;;;;;;;;;19.80;44.50;;;;;;5075768;28;19943;-58
2024/01/15 12:39:20;;;;;;;;;;;19.80;44.50;;;;;;5049048;28;19931;-56
2024/01/15 12:41:48;;;;;;;;;;;19.80;45.10;;;;;;5068697;28;19927;-58
2024/01/15 12:44:16;;;;;;;;;;;19.80;44.60;;;;;;5047148;28;19943;-56
2024/01/15 12:46:44;;;;;;;;;;;19.80;44.60;;;;;;5071307;28;19989;-59
2024/01/15 12:49:12;;;;;;;;;;;19.80;44.60;;;;;;5054338;28;19940;-59
2024/01/15 12:51:40;;;;;;;;;;;19.80;44.50;;;;;;5040721;28;20003;-57
2024/01/15 12:54:08;;;;;;;;;;;19.80;44.60;;;;;;5051394;28;19963;-59
2024/01/15 12:56:38;;;;;;;;;;;19.80;44.50;;;;;;5057882;28;19920;-56
2024/01/15 12:59:07;;;;;;;;;;;19.80;44.50;;;;;;5068862;28;19940;-58
2024/01/15 13:01:36;;;;;;;;;;;19.90;44.60;;;;;;5017260;28;19940;-57
2024/01/15 13:04:03;;;;;;;;;;;19.80;44.50;;;;;;5065781;28;19927;-57
2024/01/15 13:06:31;;;;;;;;;;;19.80;44.50;;;;;;5051992;28;19920;-58
2024/01/15 13:08:59;;;;;;;;;;;19.80;44.50;;;;;;5047990;28;19932;-58
2024/01/15 13:11:29;;;;;;;;;;;19.80;44.50;;;;;;5053446;28;19920;-58
2024/01/15 13:13:58;;;;;;;;;;;19.80;44.60;;;;;;5052393;28;19920;-55
2024/01/15 13:16:28;;;;;;;;;;;19.80;44.50;;;;;;5066806;28;20015;-55
2024/01/15 13:18:56;;;;;;;;;;;19.80;44.50;;;;;;5053696;28;19928;-56
2024/01/15 13:21:24;;;;;;;;;;;19.80;44.60;;;;;;5052324;28;19935;-54
2024/01/15 13:23:51;;;;;;;;;;;19.80;44.60;;;;;;5054627;28;19932;-56
2024/01/15 13:26:20;;;;;;;;;;;19.80;44.60;;;;;;5054363;28;19928;-58
2024/01/15 13:28:48;;;;;;;;;;;19.80;44.60;;;;;;5052639;28;19977;-56
2024/01/15 13:31:18;;;;;;;;;;;19.80;44.60;;;;;;5050838;28;19921;-56
2024/01/15 13:33:46;;;;;;;;;;;19.80;44.70;;;;;;5068040;28;19920;-58
2024/01/15 13:36:13;;;;;;;;;;;19.80;44.70;;;;;;5067900;28;19928;-58
2024/01/15 13:38:41;;;;;;;;;;;19.80;44.70;;;;;;5067835;28;19975;-57
2024/01/15 13:41:09;;;;;;;;;;;19.80;44.80;;;;;;5069881;28;19956;-59
2024/01/15 13:43:36;;;;;;;;;;;19.80;44.70;;;;;;5053748;28;20007;-59
2024/01/15 13:46:05;;;;;;;;;;;19.80;44.70;;;;;;5074261;28;19921;-58
2024/01/15 13:48:35;;;;;;;;;;;19.80;44.80;;;;;;5068836;28;19971;-58
2024/01/15 13:51:02;;;;;;;;;;;19.80;44.80;;;;;;5051192;28;19938;-59
2024/01/15 13:53:31;;;;;;;;;;;19.90;44.80;;;;;;5073187;28;19940;-59
2024/01/15 13:55:58;;;;;;;;;;;19.80;45.40;;;;;;5071609;28;19925;-56
2024/01/15 13:58:26;;;;;;;;;;;19.80;44.80;;;;;;5072414;28;19920;-58
2024/01/15 14:03:36;;;;;;;;;;;19.80;44.80;;;;;;5071172;28;19921;-58
2024/01/15 14:06:08;;;;;;;;;;;19.80;44.80;;;;;;5054906;28;19947;-59
2024/01/15 14:08:37;;;;;;;;;;;19.80;44.80;;;;;;5075732;28;19921;-57
2024/01/15 14:11:05;;;;;;;;;;;19.80;44.80;;;;;;5072653;28;19932;-58
2024/01/15 14:13:33;;;;;;;;;;;19.80;44.80;;;;;;5051848;28;20003;-59
2024/01/15 14:16:01;;;;;;;;;;;19.80;44.80;;;;;;5071327;28;19934;-59
2024/01/15 14:18:29;;;;;;;;;;;19.80;44.80;;;;;;5067278;28;19932;-59
2024/01/15 14:20:59;;;;;;;;;;;19.80;44.80;;;;;;5070952;28;19994;-59
2024/01/15 14:23:26;;;;;;;;;;;19.80;44.80;;;;;;5073298;28;19920;-58
2024/01/15 14:25:54;;;;;;;;;;;19.80;44.80;;;;;;5058341;28;19920;-58